createdAt,value
2018-03-06T00:00:44.973Z,14.82
2018-03-06T00:01:48.284Z,20.37
2018-03-06T00:02:51.839Z,18.73
2018-03-06T00:03:55.244Z,17.12
2018-03-06T00:04:58.629Z,17.50
2018-03-06T00:06:02.027Z,16.83
2018-03-06T00:07:05.480Z,14.90
2018-03-06T00:08:09.119Z,19.48
2018-03-06T00:09:13.829Z,12.43
2018-03-06T00:10:17.338Z,20.42
2018-03-06T00:11:20.984Z,16.45
2018-03-06T00:12:25.685Z,18.48
2018-03-06T00:13:29.219Z,17.00
2018-03-06T00:14:32.552Z,17.75
2018-03-06T00:15:35.908Z,17.23
2018-03-06T00:16:39.382Z,18.52
2018-03-06T00:17:43.055Z,18.70
2018-03-06T00:18:47.241Z,15.18
2018-03-06T00:19:51.542Z,17.67
2018-03-06T00:20:54.955Z,17.25
2018-03-06T00:21:58.276Z,20.70
2018-03-06T00:23:01.662Z,14.52
2018-03-06T00:24:04.980Z,18.70
2018-03-06T00:25:08.282Z,18.23
2018-03-06T00:26:11.625Z,17.40
2018-03-06T00:27:14.328Z,17.17
2018-03-06T00:28:17.554Z,22.05
2018-03-06T00:29:20.865Z,17.65
2018-03-06T00:30:24.230Z,15.85
2018-03-06T00:31:27.597Z,18.77
2018-03-06T00:32:30.983Z,20.58
2018-03-06T00:33:34.332Z,17.42
2018-03-06T00:34:37.696Z,23.80
2018-03-06T00:35:41.095Z,16.95
2018-03-06T00:36:44.452Z,16.05
2018-03-06T00:37:47.810Z,21.90
2018-03-06T00:38:51.175Z,21.73
2018-03-06T00:39:54.524Z,23.67
2018-03-06T00:40:57.874Z,18.25
2018-03-06T00:42:01.249Z,23.00
2018-03-06T00:43:04.661Z,16.83
2018-03-06T00:44:08.019Z,20.55
2018-03-06T00:45:11.449Z,19.10
2018-03-06T00:46:14.776Z,25.85
2018-03-06T00:47:18.215Z,16.60
2018-03-06T00:48:21.737Z,19.30
2018-03-06T00:49:25.160Z,22.17
2018-03-06T00:50:28.635Z,22.60
2018-03-06T00:51:32.370Z,17.45
2018-03-06T00:52:35.768Z,18.42
2018-03-06T00:53:39.150Z,19.05
2018-03-06T00:54:43.342Z,17.58
2018-03-06T00:55:47.000Z,17.48
2018-03-06T00:56:50.325Z,18.20
2018-03-06T00:57:53.670Z,20.48
2018-03-06T00:58:57.254Z,21.70
2018-03-06T01:00:00.564Z,21.75
2018-03-06T01:01:03.922Z,23.87
2018-03-06T01:02:07.609Z,18.45
2018-03-06T01:03:11.012Z,18.62
2018-03-06T01:04:14.333Z,18.35
2018-03-06T01:05:17.777Z,19.92
2018-03-06T01:06:21.140Z,18.67
2018-03-06T01:07:24.460Z,20.27
2018-03-06T01:08:27.823Z,19.52
2018-03-06T01:09:31.132Z,23.38
2018-03-06T01:10:35.443Z,17.15
2018-03-06T01:11:38.857Z,20.10
2018-03-06T01:12:42.500Z,21.95
2018-03-06T01:13:47.392Z,21.42
2018-03-06T01:14:50.809Z,23.90
2018-03-06T01:15:54.263Z,23.00
2018-03-06T01:16:57.613Z,19.00
2018-03-06T01:18:00.989Z,20.95
2018-03-06T01:19:06.026Z,25.30
2018-03-06T01:20:09.468Z,19.10
2018-03-06T01:21:12.825Z,15.75
2018-03-06T01:22:16.291Z,17.35
2018-03-06T01:23:19.637Z,18.80
2018-03-06T01:24:23.098Z,20.25
2018-03-06T01:25:26.537Z,26.52
2018-03-06T01:26:29.854Z,24.33
2018-03-06T01:27:33.215Z,21.05
2018-03-06T01:28:36.592Z,25.12
2018-03-06T01:29:39.972Z,21.70
2018-03-06T01:30:43.298Z,21.90
2018-03-06T01:31:46.620Z,23.62
2018-03-06T01:32:49.933Z,19.55
2018-03-06T01:33:53.288Z,22.00
2018-03-06T01:34:56.634Z,23.30
2018-03-06T01:36:00.038Z,18.90
2018-03-06T01:37:03.427Z,22.87
2018-03-06T01:38:06.748Z,24.17
2018-03-06T01:39:10.185Z,25.75
2018-03-06T01:40:13.528Z,21.27
2018-03-06T01:41:16.918Z,26.85
2018-03-06T01:42:20.300Z,22.83
2018-03-06T01:43:23.678Z,21.80
2018-03-06T01:44:26.989Z,22.05
2018-03-06T01:45:30.476Z,21.85
2018-03-06T01:46:33.811Z,22.77
2018-03-06T01:47:37.144Z,25.02
2018-03-06T01:48:41.008Z,18.95
2018-03-06T01:49:44.770Z,21.50
2018-03-06T01:50:48.176Z,19.33
2018-03-06T01:51:58.265Z,29.50
2018-03-06T01:53:01.700Z,20.50
2018-03-06T01:54:05.018Z,19.85
2018-03-06T01:55:08.320Z,21.77
2018-03-06T01:56:11.665Z,27.33
2018-03-06T01:57:15.047Z,22.35
2018-03-06T01:58:18.393Z,21.23
2018-03-06T01:59:21.700Z,32.63
2018-03-06T02:00:25.088Z,21.35
2018-03-06T02:01:28.429Z,29.63
2018-03-06T02:02:31.756Z,25.55
2018-03-06T02:03:35.957Z,28.23
2018-03-06T02:04:39.606Z,24.98
2018-03-06T02:05:43.033Z,26.10
2018-03-06T02:06:46.449Z,24.75
2018-03-06T02:07:50.625Z,25.98
2018-03-06T02:08:54.029Z,28.40
2018-03-06T02:09:57.447Z,24.75
2018-03-06T02:11:00.813Z,25.65
2018-03-06T02:12:04.200Z,25.08
2018-03-06T02:13:07.614Z,28.30
2018-03-06T02:14:10.936Z,25.25
2018-03-06T02:15:14.360Z,24.95
2018-03-06T02:16:18.495Z,22.73
2018-03-06T02:17:21.906Z,28.05
2018-03-06T02:18:25.236Z,24.20
2018-03-06T02:19:30.232Z,24.50
2018-03-06T02:20:33.561Z,24.17
2018-03-06T02:21:37.076Z,25.15
2018-03-06T02:22:41.241Z,27.58
2018-03-06T02:23:44.623Z,24.67
2018-03-06T02:24:48.145Z,25.80
2018-03-06T02:25:51.488Z,22.30
2018-03-06T02:26:54.839Z,24.40
2018-03-06T02:27:58.252Z,27.77
2018-03-06T02:29:01.585Z,27.13
2018-03-06T02:30:04.957Z,30.12
2018-03-06T02:31:08.404Z,25.10
2018-03-06T02:32:12.861Z,26.00
2018-03-06T02:33:16.212Z,24.42
2018-03-06T02:34:19.700Z,28.92
2018-03-06T02:35:23.082Z,26.58
2018-03-06T02:36:26.406Z,25.23
2018-03-06T02:37:29.795Z,29.30
2018-03-06T02:38:33.186Z,27.42
2018-03-06T02:39:36.560Z,28.30
2018-03-06T02:40:39.910Z,26.05
2018-03-06T02:41:43.231Z,31.33
2018-03-06T02:42:46.549Z,25.67
2018-03-06T02:43:50.013Z,30.33
2018-03-06T02:44:53.351Z,27.45
2018-03-06T02:46:09.639Z,28.35
2018-03-06T02:47:13.068Z,28.58
2018-03-06T02:48:16.448Z,29.48
2018-03-06T02:49:19.866Z,28.05
2018-03-06T02:50:23.222Z,29.85
2018-03-06T02:51:26.542Z,29.98
2018-03-06T02:52:29.955Z,29.80
2018-03-06T02:53:33.372Z,27.58
2018-03-06T02:54:36.790Z,27.55
2018-03-06T02:55:40.149Z,24.25
2018-03-06T02:56:43.466Z,29.50
2018-03-06T02:57:46.847Z,32.55
2018-03-06T02:58:50.233Z,28.00
2018-03-06T02:59:53.628Z,30.02
2018-03-06T03:00:56.949Z,28.55
2018-03-06T03:02:00.426Z,27.40
2018-03-06T03:03:03.777Z,29.85
2018-03-06T03:04:07.174Z,29.75
2018-03-06T03:05:10.573Z,30.55
2018-03-06T03:06:13.186Z,31.45
2018-03-06T03:07:16.328Z,27.67
2018-03-06T03:08:19.771Z,30.85
2018-03-06T03:09:23.112Z,26.95
2018-03-06T03:10:26.489Z,27.62
2018-03-06T03:12:39.401Z,27.45
2018-03-06T03:13:42.757Z,28.70
2018-03-06T03:14:46.086Z,30.17
2018-03-06T03:15:49.506Z,33.42
2018-03-06T03:16:52.883Z,28.25
2018-03-06T03:17:56.243Z,32.35
2018-03-06T03:18:59.644Z,26.10
2018-03-06T03:20:03.990Z,29.60
2018-03-06T03:21:07.334Z,30.45
2018-03-06T03:22:10.739Z,32.70
2018-03-06T03:23:14.158Z,28.35
2018-03-06T03:24:17.533Z,27.87
2018-03-06T03:25:21.006Z,31.67
2018-03-06T03:26:24.372Z,34.58
2018-03-06T03:27:27.696Z,29.85
2018-03-06T03:28:31.034Z,31.05
2018-03-06T03:29:34.452Z,30.45
2018-03-06T03:30:37.809Z,28.67
2018-03-06T03:31:41.153Z,28.50
2018-03-06T03:32:44.513Z,28.48
2018-03-06T03:33:47.948Z,32.30
2018-03-06T03:34:51.302Z,30.83
2018-03-06T03:35:54.659Z,28.65
2018-03-06T03:36:58.153Z,27.10
2018-03-06T03:38:01.517Z,32.22
2018-03-06T03:39:04.927Z,34.20
2018-03-06T03:40:08.304Z,33.10
2018-03-06T03:41:11.821Z,31.75
2018-03-06T03:42:15.216Z,31.15
2018-03-06T03:43:18.643Z,33.55
2018-03-06T03:44:22.023Z,32.83
2018-03-06T03:45:26.994Z,34.67
2018-03-06T03:46:30.331Z,31.92
2018-03-06T03:47:33.668Z,31.48
2018-03-06T03:48:37.076Z,36.72
2018-03-06T03:49:40.393Z,29.60
2018-03-06T03:50:43.809Z,32.25
2018-03-06T03:51:47.323Z,37.25
2018-03-06T03:52:51.229Z,32.97
2018-03-06T03:53:54.653Z,30.08
2018-03-06T03:54:58.046Z,31.73
2018-03-06T03:56:01.381Z,29.00
2018-03-06T03:57:05.130Z,34.53
2018-03-06T03:58:08.538Z,31.45
2018-03-06T03:59:11.890Z,32.50
2018-03-06T04:00:15.284Z,32.33
2018-03-06T04:01:18.633Z,29.10
2018-03-06T04:02:22.053Z,32.35
2018-03-06T04:03:25.466Z,27.70
2018-03-06T04:04:28.783Z,38.05
2018-03-06T04:05:32.191Z,36.03
2018-03-06T04:06:35.558Z,38.13
2018-03-06T04:07:38.914Z,33.72
2018-03-06T04:08:42.250Z,32.78
2018-03-06T04:09:45.640Z,35.92
2018-03-06T04:10:49.139Z,31.12
2018-03-06T04:11:52.578Z,33.13
2018-03-06T04:12:56.013Z,32.50
2018-03-06T04:13:59.396Z,38.20
2018-03-06T04:15:02.789Z,30.77
2018-03-06T04:16:06.124Z,35.00
2018-03-06T04:17:09.489Z,35.20
2018-03-06T04:18:12.905Z,31.73
2018-03-06T04:19:16.354Z,41.22
2018-03-06T04:20:21.193Z,35.60
2018-03-06T04:21:24.590Z,34.78
2018-03-06T04:22:28.025Z,36.05
2018-03-06T04:23:31.390Z,38.63
2018-03-06T04:24:34.897Z,36.38
2018-03-06T04:25:38.254Z,35.25
2018-03-06T04:26:41.762Z,37.00
2018-03-06T04:27:45.096Z,37.42
2018-03-06T04:28:48.520Z,32.45
2018-03-06T04:29:51.898Z,36.60
2018-03-06T04:30:55.400Z,36.90
2018-03-06T04:31:58.796Z,36.35
2018-03-06T04:33:02.120Z,38.60
2018-03-06T04:34:05.457Z,39.17
2018-03-06T04:35:08.886Z,39.88
2018-03-06T04:36:12.396Z,33.05
2018-03-06T04:37:15.711Z,39.78
2018-03-06T04:38:19.124Z,34.97
2018-03-06T04:39:22.444Z,38.63
2018-03-06T04:40:25.812Z,36.83
2018-03-06T04:41:29.567Z,38.85
2018-03-06T04:42:33.024Z,31.45
2018-03-06T04:43:36.379Z,40.88
2018-03-06T04:44:39.713Z,35.67
2018-03-06T04:45:43.145Z,42.28
2018-03-06T04:46:46.466Z,39.60
2018-03-06T04:47:49.956Z,39.70
2018-03-06T04:48:53.320Z,37.20
2018-03-06T04:49:56.715Z,39.95
2018-03-06T04:51:00.228Z,34.33
2018-03-06T04:52:03.789Z,35.72
2018-03-06T04:53:07.114Z,37.63
2018-03-06T04:54:10.525Z,39.03
2018-03-06T04:55:13.895Z,38.50
2018-03-06T04:56:17.366Z,38.22
2018-03-06T04:57:20.785Z,35.75
2018-03-06T04:58:25.039Z,36.55
2018-03-06T04:59:28.421Z,36.15
2018-03-06T05:00:31.726Z,37.55
2018-03-06T05:01:35.304Z,37.72
2018-03-06T05:02:38.674Z,36.92
2018-03-06T05:03:42.025Z,37.08
2018-03-06T05:04:45.464Z,36.63
2018-03-06T05:05:48.796Z,33.13
2018-03-06T05:06:52.213Z,38.80
2018-03-06T05:07:55.536Z,35.70
2018-03-06T05:08:58.897Z,38.30
2018-03-06T05:10:02.254Z,42.53
2018-03-06T05:11:05.650Z,43.97
2018-03-06T05:12:09.773Z,39.08
2018-03-06T05:13:13.118Z,41.67
2018-03-06T05:14:16.504Z,38.95
2018-03-06T05:15:19.829Z,38.17
2018-03-06T05:16:23.304Z,43.45
2018-03-06T05:17:26.708Z,43.80
2018-03-06T05:18:30.087Z,45.08
2018-03-06T05:19:33.505Z,43.38
2018-03-06T05:20:37.720Z,40.90
2018-03-06T05:21:41.074Z,42.25
2018-03-06T05:22:44.477Z,40.83
2018-03-06T05:23:47.781Z,45.17
2018-03-06T05:24:51.227Z,38.22
2018-03-06T05:25:54.527Z,41.97
2018-03-06T05:26:57.923Z,42.05
2018-03-06T05:28:01.343Z,43.38
2018-03-06T05:29:04.696Z,41.58
2018-03-06T05:30:08.151Z,39.20
2018-03-06T05:31:11.490Z,45.50
2018-03-06T05:32:14.802Z,37.17
2018-03-06T05:33:18.153Z,48.40
2018-03-06T05:34:21.532Z,39.65
2018-03-06T05:35:24.876Z,40.33
2018-03-06T05:36:28.225Z,36.70
2018-03-06T05:37:31.688Z,33.63
2018-03-06T05:38:35.235Z,41.37
2018-03-06T05:39:38.651Z,37.17
2018-03-06T05:40:42.125Z,42.60
2018-03-06T05:41:45.595Z,42.90
2018-03-06T05:42:49.009Z,45.08
2018-03-06T05:43:52.353Z,37.45
2018-03-06T05:44:55.841Z,43.63
2018-03-06T05:46:00.116Z,45.58
2018-03-06T05:47:03.486Z,42.40
2018-03-06T05:48:06.839Z,43.83
2018-03-06T05:49:10.215Z,37.30
2018-03-06T05:50:13.623Z,41.55
2018-03-06T05:51:16.941Z,43.78
2018-03-06T05:52:20.474Z,39.78
2018-03-06T05:53:23.826Z,43.08
2018-03-06T05:54:27.340Z,51.53
2018-03-06T05:55:30.850Z,49.67
2018-03-06T05:56:34.198Z,47.95
2018-03-06T05:57:37.520Z,44.05
2018-03-06T05:58:40.987Z,44.85
2018-03-06T05:59:44.336Z,46.17
2018-03-06T06:00:47.824Z,40.75
2018-03-06T06:01:51.152Z,48.00
2018-03-06T06:02:54.532Z,41.28
2018-03-06T06:03:57.848Z,42.08
2018-03-06T06:05:01.197Z,39.42
2018-03-06T06:06:04.509Z,45.90
2018-03-06T06:07:07.828Z,51.37
2018-03-06T06:08:11.274Z,43.47
2018-03-06T06:09:14.765Z,41.08
2018-03-06T06:10:18.160Z,48.10
2018-03-06T06:11:21.701Z,39.03
2018-03-06T06:12:25.056Z,44.72
2018-03-06T06:13:28.612Z,45.67
2018-03-06T06:14:31.961Z,45.67
2018-03-06T06:15:35.364Z,44.28
2018-03-06T06:16:38.789Z,46.05
2018-03-06T06:17:42.121Z,45.60
2018-03-06T06:18:45.494Z,41.97
2018-03-06T06:19:48.936Z,45.20
2018-03-06T06:20:53.277Z,44.50
2018-03-06T06:21:56.631Z,39.60
2018-03-06T06:23:00.007Z,43.75
2018-03-06T06:24:03.379Z,45.05
2018-03-06T06:25:06.772Z,46.08
2018-03-06T06:26:10.149Z,44.92
2018-03-06T06:27:13.518Z,49.42
2018-03-06T06:28:16.869Z,40.75
2018-03-06T06:29:20.406Z,47.78
2018-03-06T06:30:23.897Z,44.20
2018-03-06T06:31:27.262Z,47.03
2018-03-06T06:32:30.582Z,44.75
2018-03-06T06:33:33.970Z,51.08
2018-03-06T06:34:38.065Z,45.85
2018-03-06T06:35:41.613Z,50.40
2018-03-06T06:36:45.119Z,51.90
2018-03-06T06:37:48.478Z,48.53
2018-03-06T06:38:51.912Z,52.35
2018-03-06T06:39:55.247Z,46.08
2018-03-06T06:40:58.565Z,53.67
2018-03-06T06:42:02.045Z,48.53
2018-03-06T06:43:05.512Z,49.75
2018-03-06T06:44:08.883Z,52.15
2018-03-06T06:45:12.998Z,46.08
2018-03-06T06:46:17.162Z,51.92
2018-03-06T06:47:20.820Z,50.03
2018-03-06T06:48:24.284Z,56.58
2018-03-06T06:49:27.736Z,56.37
2018-03-06T06:50:31.297Z,53.25
2018-03-06T06:51:35.552Z,50.20
2018-03-06T06:52:39.609Z,59.05
2018-03-06T06:53:43.037Z,50.78
2018-03-06T06:54:46.485Z,51.80
2018-03-06T06:55:49.869Z,54.50
2018-03-06T06:56:53.195Z,54.20
2018-03-06T06:57:56.749Z,47.53
2018-03-06T06:59:00.071Z,51.35
2018-03-06T07:00:03.530Z,47.28
2018-03-06T07:01:06.832Z,52.28
2018-03-06T07:02:10.210Z,55.42
2018-03-06T07:03:14.423Z,49.20
2018-03-06T07:04:17.808Z,49.63
2018-03-06T07:05:21.194Z,54.97
2018-03-06T07:06:24.664Z,46.20
2018-03-06T07:07:28.363Z,52.05
2018-03-06T07:08:31.803Z,52.22
2018-03-06T07:09:35.137Z,51.28
2018-03-06T07:10:38.565Z,46.63
2018-03-06T07:11:41.894Z,57.45
2018-03-06T07:12:45.450Z,46.70
2018-03-06T07:13:48.809Z,53.83
2018-03-06T07:14:52.112Z,49.78
2018-03-06T07:15:55.678Z,54.75
2018-03-06T07:16:59.306Z,50.83
2018-03-06T07:18:02.689Z,46.20
2018-03-06T07:19:06.672Z,59.75
2018-03-06T07:20:10.076Z,52.53
2018-03-06T07:21:14.356Z,59.42
2018-03-06T07:22:17.656Z,49.63
2018-03-06T07:23:21.159Z,57.55
2018-03-06T07:24:24.568Z,48.05
2018-03-06T07:25:28.022Z,51.20
2018-03-06T07:26:31.424Z,58.33
2018-03-06T07:27:34.911Z,44.90
2018-03-06T07:28:38.245Z,49.85
2018-03-06T07:29:41.795Z,56.75
2018-03-06T07:30:45.228Z,55.35
2018-03-06T07:31:48.581Z,52.80
2018-03-06T07:32:51.947Z,54.72
2018-03-06T07:33:55.461Z,51.78
2018-03-06T07:34:58.858Z,53.70
2018-03-06T07:36:02.791Z,49.33
2018-03-06T07:37:06.431Z,49.75
2018-03-06T07:38:10.106Z,57.78
2018-03-06T07:39:13.515Z,58.05
2018-03-06T07:40:16.965Z,50.63
2018-03-06T07:41:20.668Z,48.38
2018-03-06T07:42:24.088Z,54.83
2018-03-06T07:43:27.423Z,52.15
2018-03-06T07:44:30.754Z,53.25
2018-03-06T07:45:34.160Z,60.05
2018-03-06T07:46:37.548Z,54.75
2018-03-06T07:47:42.705Z,64.28
2018-03-06T07:48:46.286Z,53.53
2018-03-06T07:49:49.863Z,56.80
2018-03-06T07:50:54.181Z,47.80
2018-03-06T07:51:57.866Z,48.67
2018-03-06T07:53:01.169Z,60.88
2018-03-06T07:54:04.634Z,55.30
2018-03-06T07:55:07.919Z,54.15
2018-03-06T07:56:11.394Z,56.53
2018-03-06T07:57:14.740Z,55.10
2018-03-06T07:58:19.244Z,57.97
2018-03-06T07:59:22.976Z,60.03
2018-03-06T08:00:26.339Z,61.42
2018-03-06T08:01:29.773Z,51.97
2018-03-06T08:02:33.328Z,60.15
2018-03-06T08:03:36.848Z,47.30
2018-03-06T08:04:40.277Z,50.72
2018-03-06T08:05:43.680Z,49.72
2018-03-06T08:06:47.205Z,56.55
2018-03-06T08:07:50.933Z,53.72
2018-03-06T08:08:54.351Z,50.25
2018-03-06T08:09:57.768Z,58.33
2018-03-06T08:11:02.313Z,56.13
2018-03-06T08:12:05.689Z,50.85
2018-03-06T08:13:08.996Z,61.72
2018-03-06T08:14:12.508Z,66.68
2018-03-06T08:15:15.879Z,59.88
2018-03-06T08:16:19.271Z,59.22
2018-03-06T08:17:23.571Z,55.05
2018-03-06T08:18:26.917Z,58.72
2018-03-06T08:19:30.427Z,62.35
2018-03-06T08:20:33.897Z,58.22
2018-03-06T08:21:38.202Z,59.85
2018-03-06T08:22:41.754Z,64.35
2018-03-06T08:23:45.084Z,55.40
2018-03-06T08:24:48.488Z,50.20
2018-03-06T08:25:51.833Z,53.87
2018-03-06T08:26:55.235Z,53.95
2018-03-06T08:27:58.644Z,50.25
2018-03-06T08:29:02.028Z,55.17
2018-03-06T08:30:05.343Z,57.90
2018-03-06T08:31:08.680Z,52.08
2018-03-06T08:32:12.120Z,61.95
2018-03-06T08:33:15.504Z,53.80
2018-03-06T08:35:27.435Z,54.67
2018-03-06T08:36:30.799Z,55.80
2018-03-06T08:37:34.138Z,56.13
2018-03-06T08:38:37.556Z,58.28
2018-03-06T08:39:41.083Z,57.85
2018-03-06T08:40:44.569Z,105.30
2018-03-06T08:41:47.892Z,55.50
2018-03-06T08:42:51.303Z,56.70
2018-03-06T08:43:54.756Z,50.65
2018-03-06T08:44:58.106Z,53.47
2018-03-06T08:46:01.516Z,63.60
2018-03-06T08:47:04.883Z,74.25
2018-03-06T08:48:08.297Z,91.25
2018-03-06T08:49:11.638Z,70.95
2018-03-06T08:50:15.059Z,55.10
2018-03-06T08:51:18.441Z,60.05
2018-03-06T08:52:21.820Z,64.60
2018-03-06T08:53:25.124Z,64.05
2018-03-06T08:54:28.536Z,61.00
2018-03-06T08:55:31.920Z,74.22
2018-03-06T08:56:39.183Z,60.60
2018-03-06T08:57:42.494Z,56.63
2018-03-06T08:58:45.887Z,63.72
2018-03-06T08:59:49.361Z,62.40
2018-03-06T09:00:52.905Z,95.87
2018-03-06T09:01:56.263Z,55.30
2018-03-06T09:02:59.716Z,67.00
2018-03-06T09:04:03.178Z,54.90
2018-03-06T09:05:06.512Z,55.88
2018-03-06T09:06:09.835Z,64.07
2018-03-06T09:07:13.212Z,56.63
2018-03-06T09:08:16.585Z,62.10
2018-03-06T09:09:19.967Z,64.20
2018-03-06T09:10:23.309Z,59.50
2018-03-06T09:11:26.657Z,60.58
2018-03-06T09:12:31.333Z,61.13
2018-03-06T09:13:34.865Z,59.85
2018-03-06T09:14:38.206Z,62.35
2018-03-06T09:15:41.818Z,70.43
2018-03-06T09:16:45.141Z,67.47
2018-03-06T09:17:48.507Z,80.65
2018-03-06T09:18:51.813Z,64.72
2018-03-06T09:19:55.390Z,59.00
2018-03-06T09:20:58.790Z,71.05
2018-03-06T09:22:04.366Z,59.97
2018-03-06T09:23:07.675Z,60.42
2018-03-06T09:24:11.063Z,62.72
2018-03-06T09:25:14.399Z,61.33
2018-03-06T09:26:17.781Z,57.50
2018-03-06T09:27:21.088Z,69.20
2018-03-06T09:28:24.412Z,63.50
2018-03-06T09:29:28.712Z,66.05
2018-03-06T09:30:32.157Z,62.20
2018-03-06T09:31:35.508Z,59.38
2018-03-06T09:32:39.267Z,58.42
2018-03-06T09:33:43.364Z,61.55
2018-03-06T09:34:46.739Z,63.13
2018-03-06T09:35:50.155Z,68.30
2018-03-06T09:36:53.647Z,63.47
2018-03-06T09:37:56.975Z,56.80
2018-03-06T09:39:00.332Z,61.78
2018-03-06T09:40:03.767Z,71.85
2018-03-06T09:41:07.179Z,62.80
2018-03-06T09:42:10.652Z,64.50
2018-03-06T09:43:14.051Z,60.72
2018-03-06T09:44:17.509Z,67.30
2018-03-06T09:45:21.033Z,62.10
2018-03-06T09:46:24.385Z,62.22
2018-03-06T09:47:28.126Z,60.70
2018-03-06T09:48:31.476Z,56.08
2018-03-06T09:49:34.847Z,72.80
2018-03-06T09:50:38.171Z,60.85
2018-03-06T09:51:42.784Z,65.53
2018-03-06T09:52:47.829Z,62.20
2018-03-06T09:53:51.562Z,60.67
2018-03-06T09:54:55.358Z,64.55
2018-03-06T09:55:59.003Z,81.12
2018-03-06T09:57:02.414Z,71.15
2018-03-06T09:58:05.800Z,62.13
2018-03-06T09:59:09.112Z,64.95
2018-03-06T10:00:12.545Z,61.70
2018-03-06T10:01:15.989Z,56.70
2018-03-06T10:02:19.425Z,55.92
2018-03-06T10:03:22.939Z,55.95
2018-03-06T10:04:26.464Z,59.17
2018-03-06T10:05:29.869Z,58.13
2018-03-06T10:06:33.322Z,58.75
2018-03-06T10:07:36.713Z,75.30
2018-03-06T10:08:40.116Z,57.58
2018-03-06T10:09:43.600Z,61.03
2018-03-06T10:10:47.192Z,55.00
2018-03-06T10:11:50.636Z,68.62
2018-03-06T10:12:54.096Z,68.00
2018-03-06T10:13:57.541Z,57.78
2018-03-06T10:15:00.945Z,67.22
2018-03-06T10:16:04.324Z,64.03
2018-03-06T10:17:07.706Z,63.08
2018-03-06T10:18:11.127Z,55.60
2018-03-06T10:19:14.503Z,63.38
2018-03-06T10:20:17.869Z,56.78
2018-03-06T10:21:21.318Z,59.70
2018-03-06T10:22:25.207Z,60.70
2018-03-06T10:23:28.564Z,77.50
2018-03-06T10:24:32.011Z,70.47
2018-03-06T10:25:35.444Z,72.75
2018-03-06T10:26:38.825Z,68.62
2018-03-06T10:27:42.212Z,80.38
2018-03-06T10:28:45.675Z,68.60
2018-03-06T10:29:49.005Z,62.80
2018-03-06T10:30:52.488Z,60.40
2018-03-06T10:31:55.838Z,62.30
2018-03-06T10:32:59.180Z,59.45
2018-03-06T10:34:02.557Z,63.13
2018-03-06T10:35:05.914Z,74.12
2018-03-06T10:36:09.246Z,59.30
2018-03-06T10:37:12.620Z,58.97
2018-03-06T10:38:15.924Z,56.40
2018-03-06T10:39:19.314Z,59.53
2018-03-06T10:40:23.106Z,53.15
2018-03-06T10:41:26.455Z,58.53
2018-03-06T10:42:30.314Z,66.55
2018-03-06T10:43:33.698Z,62.33
2018-03-06T10:44:37.090Z,57.30
2018-03-06T10:45:40.455Z,58.58
2018-03-06T10:46:43.885Z,63.90
2018-03-06T10:47:48.176Z,56.72
2018-03-06T10:48:51.490Z,70.10
2018-03-06T10:49:55.874Z,75.37
2018-03-06T10:50:59.781Z,63.53
2018-03-06T10:52:03.134Z,63.03
2018-03-06T10:53:06.480Z,56.58
2018-03-06T10:54:09.900Z,64.10
2018-03-06T10:55:13.301Z,54.00
2018-03-06T10:56:16.718Z,59.90
2018-03-06T10:57:20.055Z,65.57
2018-03-06T10:58:23.490Z,68.55
2018-03-06T10:59:26.842Z,71.47
2018-03-06T11:00:36.097Z,86.22
2018-03-06T11:01:39.498Z,61.28
2018-03-06T11:02:43.116Z,61.33
2018-03-06T11:03:46.594Z,67.05
2018-03-06T11:04:49.978Z,61.28
2018-03-06T11:05:53.317Z,63.10
2018-03-06T11:06:56.721Z,60.08
2018-03-06T11:08:00.124Z,54.85
2018-03-06T11:09:03.621Z,66.45
2018-03-06T11:10:07.070Z,68.43
2018-03-06T11:11:10.457Z,66.35
2018-03-06T11:12:13.848Z,55.72
2018-03-06T11:13:17.244Z,67.97
2018-03-06T11:14:20.640Z,60.78
2018-03-06T11:15:24.013Z,58.08
2018-03-06T11:16:27.404Z,52.10
2018-03-06T11:17:31.015Z,68.20
2018-03-06T11:18:34.384Z,53.50
2018-03-06T11:19:37.760Z,56.37
2018-03-06T11:20:41.248Z,44.83
2018-03-06T11:21:44.644Z,37.50
2018-03-06T11:22:48.076Z,41.45
2018-03-06T11:23:51.479Z,40.85
2018-03-06T11:24:54.900Z,54.28
2018-03-06T11:25:58.282Z,36.53
2018-03-06T11:27:01.694Z,44.70
2018-03-06T11:28:05.244Z,40.38
2018-03-06T11:29:08.636Z,51.75
2018-03-06T11:30:12.015Z,56.13
2018-03-06T11:31:15.396Z,45.35
2018-03-06T11:32:18.695Z,50.33
2018-03-06T11:33:22.132Z,42.62
2018-03-06T11:34:25.532Z,34.85
2018-03-06T11:35:29.000Z,34.22
2018-03-06T11:36:32.384Z,34.80
2018-03-06T11:37:35.719Z,36.47
2018-03-06T11:38:39.126Z,35.78
2018-03-06T11:39:43.361Z,40.40
2018-03-06T11:40:46.860Z,42.38
2018-03-06T11:41:50.187Z,39.60
2018-03-06T11:42:53.576Z,37.08
2018-03-06T11:43:56.963Z,32.17
2018-03-06T11:45:00.587Z,37.35
2018-03-06T11:46:03.904Z,36.67
2018-03-06T11:47:07.362Z,37.17
2018-03-06T11:48:10.692Z,34.33
2018-03-06T11:49:14.301Z,36.72
2018-03-06T11:50:17.816Z,41.35
2018-03-06T11:51:21.154Z,34.95
2018-03-06T11:52:24.810Z,34.42
2018-03-06T11:53:28.247Z,31.83
2018-03-06T11:54:32.054Z,36.65
2018-03-06T11:55:35.950Z,36.15
2018-03-06T11:56:39.431Z,42.28
2018-03-06T11:57:43.049Z,37.85
2018-03-06T11:58:46.478Z,35.13
2018-03-06T11:59:50.237Z,44.65
2018-03-06T12:00:53.553Z,39.40
2018-03-06T12:01:57.072Z,39.40
2018-03-06T12:03:00.374Z,46.95
2018-03-06T12:04:03.792Z,36.60
2018-03-06T12:05:07.142Z,34.22
2018-03-06T12:06:10.829Z,40.83
2018-03-06T12:07:14.377Z,39.08
2018-03-06T12:08:17.661Z,38.35
2018-03-06T12:09:21.003Z,47.17
2018-03-06T12:10:24.395Z,32.90
2018-03-06T12:11:27.797Z,38.97
2018-03-06T12:12:31.157Z,38.95
2018-03-06T12:13:34.473Z,41.88
2018-03-06T12:14:37.968Z,34.40
2018-03-06T12:15:41.504Z,32.33
2018-03-06T12:16:44.965Z,36.83
2018-03-06T12:17:48.495Z,35.90
2018-03-06T12:18:52.524Z,35.80
2018-03-06T12:19:57.076Z,36.63
2018-03-06T12:21:01.006Z,35.33
2018-03-06T12:22:04.494Z,41.33
2018-03-06T12:23:08.830Z,35.80
2018-03-06T12:24:12.256Z,39.00
2018-03-06T12:25:15.775Z,35.53
2018-03-06T12:26:19.532Z,39.60
2018-03-06T12:27:23.089Z,47.70
2018-03-06T12:28:26.466Z,40.33
2018-03-06T12:29:29.940Z,40.97
2018-03-06T12:30:33.358Z,39.30
2018-03-06T12:31:36.835Z,37.28
2018-03-06T12:32:40.198Z,44.70
2018-03-06T12:33:43.617Z,43.03
2018-03-06T12:34:47.060Z,38.92
2018-03-06T12:35:50.456Z,35.33
2018-03-06T12:36:53.818Z,43.63
2018-03-06T12:37:57.217Z,41.08
2018-03-06T12:39:00.549Z,45.35
2018-03-06T12:40:04.000Z,37.42
2018-03-06T12:41:07.442Z,35.50
2018-03-06T12:42:10.900Z,39.00
2018-03-06T12:43:14.376Z,42.38
2018-03-06T12:44:17.712Z,47.15
2018-03-06T12:45:21.337Z,36.35
2018-03-06T12:46:24.652Z,47.35
2018-03-06T12:47:28.185Z,43.35
2018-03-06T12:48:31.576Z,40.40
2018-03-06T12:49:34.925Z,39.28
2018-03-06T12:50:38.373Z,38.65
2018-03-06T12:51:41.806Z,32.60
2018-03-06T12:52:45.382Z,34.45
2018-03-06T12:53:49.509Z,39.47
2018-03-06T12:54:52.951Z,33.60
2018-03-06T12:55:56.345Z,26.37
2018-03-06T12:56:59.748Z,32.47
2018-03-06T12:58:03.107Z,31.17
2018-03-06T12:59:06.533Z,28.77
2018-03-06T13:00:10.173Z,32.58
2018-03-06T13:01:13.495Z,57.53
2018-03-06T13:02:16.845Z,33.78
2018-03-06T13:03:20.196Z,22.67
2018-03-06T13:04:23.632Z,25.00
2018-03-06T13:05:27.120Z,25.75
2018-03-06T13:06:30.590Z,31.80
2018-03-06T13:07:33.996Z,25.48
2018-03-06T13:08:37.421Z,24.20
2018-03-06T13:09:40.866Z,23.25
2018-03-06T13:10:44.196Z,25.00
2018-03-06T13:11:47.601Z,25.98
2018-03-06T13:12:51.046Z,22.20
2018-03-06T13:13:54.520Z,23.98
2018-03-06T13:14:57.887Z,30.73
2018-03-06T13:16:01.287Z,26.05
2018-03-06T13:17:04.609Z,27.48
2018-03-06T13:18:07.930Z,30.62
2018-03-06T13:19:11.285Z,27.13
2018-03-06T13:20:14.643Z,29.87
2018-03-06T13:21:17.970Z,44.33
2018-03-06T13:22:21.339Z,31.45
2018-03-06T13:23:27.997Z,28.98
2018-03-06T13:24:31.311Z,36.33
2018-03-06T13:25:34.628Z,34.30
2018-03-06T13:26:38.066Z,30.85
2018-03-06T13:27:41.376Z,31.75
2018-03-06T13:28:44.804Z,25.08
2018-03-06T13:29:48.200Z,23.25
2018-03-06T13:30:51.541Z,20.50
2018-03-06T13:31:54.863Z,22.13
2018-03-06T13:32:58.242Z,23.45
2018-03-06T13:34:01.638Z,30.15
2018-03-06T13:35:04.976Z,26.98
2018-03-06T13:36:08.317Z,25.98
2018-03-06T13:37:11.640Z,22.10
2018-03-06T13:38:14.972Z,19.92
2018-03-06T13:39:18.320Z,27.37
2018-03-06T13:40:21.743Z,30.00